Time;durP1;ratioP1;P1;durP2;ratioP2;P2;SDS_P1;SDS_P2;PMS_P1;PMS_P2;Temp;Humidity;BMP_temperature;BMP_pressure;BME280_temperature;BME280_humidity;BME280_pressure;Samples;Min_cycle;Max_cycle;Signal;HPM_P1;HPM_P2
2022/04/04 00:02:03;;;;;;;14.13;11.70;;;1.70;1.00;;;;;;5036792;28;20494;-61
2022/04/04 00:04:33;;;;;;;12.17;10.90;;;1.70;1.00;;;;;;5036112;28;20741;-60
2022/04/04 00:07:03;;;;;;;12.87;11.50;;;1.70;1.00;;;;;;5036558;28;20513;-61
2022/04/04 00:09:31;;;;;;;12.23;10.93;;;1.60;1.00;;;;;;5030922;28;20488;-61
2022/04/04 00:12:01;;;;;;;12.10;10.90;;;1.60;1.00;;;;;;5016499;28;20515;-61
2022/04/04 00:14:28;;;;;;;11.57;9.93;;;1.70;1.00;;;;;;5016348;28;20464;-61
2022/04/04 00:17:00;;;;;;;13.30;10.70;;;1.50;1.00;;;;;;5019856;28;20552;-61
2022/04/04 00:19:33;;;;;;;12.13;10.87;;;1.50;1.00;;;;;;5020976;28;20468;-61
2022/04/04 00:22:03;;;;;;;11.90;10.70;;;1.50;28.10;;;;;;5039973;28;20791;-61
2022/04/04 00:24:38;;;;;;;12.00;10.80;;;1.40;1.00;;;;;;5039687;28;20537;-61
2022/04/04 00:27:05;;;;;;;10.90;9.80;;;1.30;1.00;;;;;;5039886;28;20505;-61
2022/04/04 00:29:32;;;;;;;14.33;9.47;;;1.20;1.00;;;;;;5039977;28;20520;-61
2022/04/04 00:32:02;;;;;;;12.47;11.20;;;1.30;99.90;;;;;;5022425;28;20517;-61
2022/04/04 00:34:33;;;;;;;12.37;11.17;;;1.30;99.90;;;;;;5019701;28;20521;-61
2022/04/04 00:37:02;;;;;;;13.17;11.90;;;1.40;99.90;;;;;;5020208;28;20521;-61
2022/04/04 00:39:36;;;;;;;12.17;10.70;;;1.40;1.00;;;;;;5020495;28;20513;-61
2022/04/04 00:42:03;;;;;;;12.63;10.80;;;1.50;1.00;;;;;;5032781;28;20958;-61
2022/04/04 00:44:33;;;;;;;14.03;12.53;;;1.60;1.00;;;;;;5039510;28;20571;-62
2022/04/04 00:47:02;;;;;;;12.90;11.60;;;1.70;1.00;;;;;;5038601;28;20462;-61
2022/04/04 00:49:33;;;;;;;13.10;11.60;;;1.90;1.00;;;;;;5039668;28;20467;-61
2022/04/04 00:52:02;;;;;;;12.37;11.07;;;1.90;99.90;;;;;;5030520;28;20452;-61
2022/04/04 00:54:30;;;;;;;13.80;11.63;;;2.00;99.90;;;;;;5019690;28;20817;-61
2022/04/04 00:56:58;;;;;;;13.30;12.00;;;2.00;99.90;;;;;;5018085;28;20449;-61
2022/04/04 00:59:25;;;;;;;14.27;11.53;;;2.10;99.90;;;;;;5019833;28;20464;-61
2022/04/04 01:01:55;;;;;;;14.10;11.33;;;2.20;99.90;;;;;;5034627;28;20546;-61
2022/04/04 01:04:22;;;;;;;13.80;12.40;;;2.20;80.40;;;;;;5019482;28;20815;-61
2022/04/04 01:06:54;;;;;;;12.47;11.17;;;2.20;7.10;;;;;;5019719;28;20467;-61
2022/04/04 01:09:23;;;;;;;12.83;11.53;;;2.20;1.00;;;;;;5019255;28;20614;-61
2022/04/04 01:12:05;;;;;;;13.10;11.80;;;2.20;1.00;;;;;;5018763;28;20517;-61
2022/04/04 01:14:33;;;;;;;14.77;11.90;;;2.20;1.00;;;;;;5019413;28;20899;-61
2022/04/04 01:17:16;;;;;;;14.90;12.33;;;2.20;1.00;;;;;;5025657;28;20497;-61
2022/04/04 01:19:46;;;;;;;14.87;13.27;;;2.20;1.00;;;;;;5039209;28;20459;-61
2022/04/04 01:22:16;;;;;;;16.83;12.83;;;2.20;1.00;;;;;;5039224;28;20495;-61
2022/04/04 01:24:45;;;;;;;14.43;12.63;;;2.20;1.00;;;;;;5019116;28;20460;-61
2022/04/04 01:27:12;;;;;;;13.43;12.03;;;2.10;1.00;;;;;;5019893;28;20505;-61
2022/04/04 01:29:40;;;;;;;13.77;11.97;;;2.10;1.00;;;;;;5019212;28;20471;-61
2022/04/04 01:32:13;;;;;;;13.90;12.40;;;2.10;88.20;;;;;;5019286;28;20600;-61
2022/04/04 01:34:43;;;;;;;14.00;12.60;;;2.10;99.90;;;;;;5033546;28;20529;-61
2022/04/04 01:37:10;;;;;;;12.70;11.40;;;2.20;99.90;;;;;;5038334;28;20560;-61
2022/04/04 01:39:37;;;;;;;12.00;10.70;;;2.20;99.90;;;;;;5038772;28;20485;-61
2022/04/04 01:48:21;;;;;;;12.57;9.43;;;2.10;99.90;;;;;;5038114;28;20894;-61
2022/04/04 01:50:50;;;;;;;13.17;10.23;;;2.10;99.90;;;;;;5038439;28;20474;-61
2022/04/04 01:53:29;;;;;;;13.00;10.23;;;2.10;99.90;;;;;;5022138;28;20500;-61
2022/04/04 01:56:04;;;;;;;11.07;9.50;;;2.00;99.90;;;;;;5018904;28;20471;-61
2022/04/04 01:58:34;;;;;;;11.10;9.90;;;2.00;99.90;;;;;;5035418;28;20494;-61
2022/04/04 02:01:13;;;;;;;12.77;10.80;;;2.00;99.90;;;;;;5037969;28;20727;-61
2022/04/04 02:03:44;;;;;;;13.83;10.70;;;1.90;99.90;;;;;;5038894;28;20517;-61
2022/04/04 02:06:18;;;;;;;11.03;9.90;;;2.00;99.90;;;;;;5038465;28;20513;-61
2022/04/04 02:08:51;;;;;;;11.97;9.20;;;2.00;99.90;;;;;;5021636;28;20472;-61
2022/04/04 02:11:20;;;;;;;13.20;9.27;;;2.00;99.90;;;;;;5018016;28;20480;-61
2022/04/04 02:13:48;;;;;;;16.23;10.00;;;2.00;99.90;;;;;;5018072;28;20972;-61
2022/04/04 02:16:16;;;;;;;12.23;9.37;;;2.00;99.90;;;;;;5017878;28;20525;-61
2022/04/04 02:18:46;;;;;;;13.10;9.80;;;2.00;99.90;;;;;;5018836;28;20463;-61
2022/04/04 02:21:13;;;;;;;10.07;8.63;;;2.00;99.90;;;;;;5033255;28;20467;-61
2022/04/04 02:23:44;;;;;;;14.53;9.00;;;2.00;99.90;;;;;;5038080;28;20466;-61
2022/04/04 02:26:13;;;;;;;10.70;8.57;;;1.90;99.90;;;;;;5037993;28;20895;-61
2022/04/04 02:28:43;;;;;;;12.30;9.53;;;1.90;99.90;;;;;;5033871;28;20495;-61
2022/04/04 02:31:23;;;;;;;11.87;9.43;;;1.90;99.90;;;;;;5018005;28;20463;-61
2022/04/04 02:33:52;;;;;;;9.77;8.57;;;1.90;99.90;;;;;;5017976;28;20474;-61
2022/04/04 02:36:25;;;;;;;13.47;9.07;;;1.90;99.90;;;;;;5017577;28;20473;-61
2022/04/04 02:38:58;;;;;;;11.50;9.40;;;1.80;99.90;;;;;;5018714;28;20468;-60
2022/04/04 02:41:27;;;;;;;10.90;8.80;;;1.80;99.90;;;;;;5037527;28;20597;-61
2022/04/04 02:43:54;;;;;;;13.90;10.07;;;1.70;99.90;;;;;;5037499;28;20983;-60
2022/04/04 02:46:28;;;;;;;12.70;10.00;;;1.80;99.90;;;;;;5037399;28;20509;-61
2022/04/04 02:48:57;;;;;;;14.73;9.30;;;1.80;99.90;;;;;;5036853;28;20465;-60
2022/04/04 02:51:25;;;;;;;13.53;9.83;;;1.90;99.90;;;;;;5017724;28;20559;-60
2022/04/04 02:53:57;;;;;;;10.33;9.03;;;1.80;99.90;;;;;;5017425;28;20464;-60
2022/04/04 02:56:29;;;;;;;12.77;10.50;;;1.80;99.90;;;;;;5017056;28;20468;-61
2022/04/04 02:58:57;;;;;;;13.30;9.90;;;1.80;99.90;;;;;;5017718;28;20464;-61
2022/04/04 03:01:25;;;;;;;12.27;9.20;;;1.80;99.90;;;;;;5032230;28;20474;-62
2022/04/04 03:03:55;;;;;;;15.27;9.30;;;1.80;99.90;;;;;;5036678;28;20580;-62
2022/04/04 03:06:22;;;;;;;12.97;9.20;;;1.90;99.90;;;;;;5037195;28;20517;-62
2022/04/04 03:08:50;;;;;;;13.30;11.10;;;1.90;99.90;;;;;;5036891;28;20474;-62
2022/04/04 03:11:20;;;;;;;12.80;10.20;;;1.90;99.90;;;;;;5025604;28;20868;-62
2022/04/04 03:13:47;;;;;;;14.97;12.77;;;1.90;99.90;;;;;;5017881;28;20463;-62
2022/04/04 03:16:14;;;;;;;16.23;11.30;;;1.90;99.90;;;;;;5032156;28;20466;-62
2022/04/04 03:18:42;;;;;;;17.60;11.00;;;1.90;99.90;;;;;;5036941;28;20470;-62
2022/04/04 03:21:13;;;;;;;13.20;11.13;;;1.90;99.90;;;;;;5030049;28;20472;-62
2022/04/04 03:23:43;;;;;;;12.60;10.33;;;1.90;99.90;;;;;;5017607;28;20589;-62
2022/04/04 03:26:13;;;;;;;11.20;9.43;;;1.90;99.90;;;;;;5018255;28;20452;-62
2022/04/04 03:28:56;;;;;;;13.50;10.57;;;2.00;99.90;;;;;;5016501;28;20471;-62
2022/04/04 03:31:25;;;;;;;15.40;12.20;;;2.00;97.40;;;;;;5019957;28;20466;-62
2022/04/04 03:33:53;;;;;;;11.93;10.57;;;2.00;90.30;;;;;;5036659;28;20477;-62
2022/04/04 03:36:26;;;;;;;15.30;10.60;;;2.00;10.50;;;;;;5036509;28;20886;-62
2022/04/04 03:38:56;;;;;;;14.07;11.40;;;1.90;1.00;;;;;;5036900;28;20469;-62
2022/04/04 03:41:26;;;;;;;15.53;11.77;;;1.90;1.00;;;;;;5035735;28;20557;-62
2022/04/04 03:43:59;;;;;;;13.67;11.53;;;1.90;2.90;;;;;;5017608;28;20505;-62
2022/04/04 03:46:26;;;;;;;13.03;10.10;;;1.90;1.00;;;;;;5016594;28;20468;-62
2022/04/04 03:49:01;;;;;;;16.13;11.80;;;2.00;1.00;;;;;;5016600;28;20463;-62
2022/04/04 03:51:28;;;;;;;16.67;11.60;;;2.00;1.00;;;;;;5019526;28;20475;-62
2022/04/04 03:53:58;;;;;;;13.60;11.50;;;2.10;1.00;;;;;;5037228;28;20966;-62
2022/04/04 03:56:26;;;;;;;14.33;12.33;;;2.10;1.00;;;;;;5039325;28;20459;-62
2022/04/04 03:58:56;;;;;;;20.20;13.60;;;2.10;1.00;;;;;;5040593;28;20757;-63
2022/04/04 04:01:27;;;;;;;17.40;12.43;;;2.10;1.00;;;;;;5040689;28;20671;-62
2022/04/04 04:04:03;;;;;;;13.80;12.33;;;2.10;1.00;;;;;;5026401;28;20527;-63
2022/04/04 04:06:37;;;;;;;19.17;14.53;;;2.10;1.00;;;;;;5020855;28;20764;-63
2022/04/04 04:09:07;;;;;;;17.17;13.30;;;2.00;1.00;;;;;;5019903;28;20935;-62
2022/04/04 04:11:34;;;;;;;17.20;13.30;;;2.00;1.00;;;;;;5020457;28;20578;-62
2022/04/04 04:14:04;;;;;;;16.23;14.40;;;2.00;1.00;;;;;;5028791;28;20467;-63
2022/04/04 04:16:36;;;;;;;21.50;15.20;;;2.10;1.00;;;;;;5020596;28;20470;-62
2022/04/04 04:20:19;;;;;;;18.33;15.00;;;2.00;1.00;;;;;;5021539;28;20470;-63
2022/04/04 04:21:51;;;;;;;20.87;14.30;;;1.90;1.00;;;;;;5026541;28;20702;-63
2022/04/04 04:24:19;;;;;;;19.53;13.50;;;1.90;1.00;;;;;;5033393;28;20463;-63
2022/04/04 04:26:49;;;;;;;18.80;15.77;;;1.90;1.00;;;;;;5029867;28;20464;-63
2022/04/04 04:29:16;;;;;;;20.37;14.30;;;1.80;1.00;;;;;;5025214;28;20473;-63
2022/04/04 04:31:44;;;;;;;20.60;15.77;;;1.80;1.00;;;;;;5039622;28;20523;-62
2022/04/04 04:34:14;;;;;;;19.60;16.57;;;1.80;1.00;;;;;;5039049;28;20463;-62
2022/04/04 04:36:41;;;;;;;18.20;15.00;;;1.80;1.00;;;;;;5022204;28;20466;-63
2022/04/04 04:39:13;;;;;;;17.23;15.20;;;1.70;1.00;;;;;;5018673;28;20519;-63
2022/04/04 04:41:40;;;;;;;17.83;15.63;;;1.80;1.00;;;;;;5032652;28;20475;-63
2022/04/04 04:44:13;;;;;;;19.93;16.37;;;1.70;1.00;;;;;;5039738;28;20543;-63
2022/04/04 04:46:40;;;;;;;16.40;14.70;;;1.70;1.00;;;;;;5029539;28;20552;-62
2022/04/04 04:49:07;;;;;;;20.70;14.73;;;1.70;1.00;;;;;;5026728;28;20918;-63
2022/04/04 04:51:35;;;;;;;20.40;13.87;;;1.70;1.00;;;;;;5028659;28;20550;-63
2022/04/04 04:54:05;;;;;;;19.57;15.10;;;1.80;1.00;;;;;;5025924;28;20468;-62
2022/04/04 04:56:35;;;;;;;22.43;13.93;;;1.80;1.00;;;;;;5024618;28;20462;-63
2022/04/04 04:59:03;;;;;;;17.60;14.40;;;1.80;1.00;;;;;;5025717;28;20460;-63
2022/04/04 05:01:33;;;;;;;18.77;14.80;;;1.70;1.00;;;;;;5018807;28;20474;-62
2022/04/04 05:04:02;;;;;;;19.10;15.30;;;1.70;1.00;;;;;;5020070;28;20564;-63
2022/04/04 05:06:29;;;;;;;18.03;14.37;;;1.60;1.00;;;;;;5019202;28;20464;-61
2022/04/04 05:09:04;;;;;;;21.13;16.33;;;1.70;1.00;;;;;;5025573;28;20470;-62
2022/04/04 05:11:31;;;;;;;18.60;14.57;;;1.60;1.00;;;;;;5026806;28;20501;-62
2022/04/04 05:13:58;;;;;;;20.00;15.30;;;1.60;1.00;;;;;;5026541;28;20893;-62
2022/04/04 05:16:28;;;;;;;21.77;15.37;;;1.60;1.00;;;;;;5026804;28;20495;-63
2022/04/04 05:19:03;;;;;;;22.37;15.97;;;1.60;1.00;;;;;;5023594;28;20532;-63
2022/04/04 05:21:34;;;;;;;17.57;14.13;;;1.70;1.00;;;;;;5022464;28;20461;-62
2022/04/04 05:24:04;;;;;;;21.70;16.07;;;1.80;1.00;;;;;;5024062;28;20504;-62
2022/04/04 05:26:31;;;;;;;20.80;16.53;;;1.80;1.00;;;;;;5025829;28;20517;-62
2022/04/04 05:29:01;;;;;;;20.53;15.73;;;1.80;1.00;;;;;;5025192;28;20462;-63
2022/04/04 05:31:30;;;;;;;23.10;15.67;;;1.80;1.00;;;;;;5025841;28;20470;-62
2022/04/04 05:33:58;;;;;;;21.33;13.60;;;1.90;99.90;;;;;;5024549;28;20468;-63
2022/04/04 05:36:26;;;;;;;16.90;13.07;;;1.90;99.90;;;;;;5023806;28;20486;-62
2022/04/04 05:39:08;;;;;;;21.50;15.20;;;2.00;99.90;;;;;;5023370;28;20972;-62
2022/04/04 05:41:38;;;;;;;17.07;12.73;;;2.10;99.90;;;;;;5023213;28;20527;-62
2022/04/04 05:44:11;;;;;;;22.43;15.20;;;2.00;99.90;;;;;;5024568;28;20582;-62
2022/04/04 05:46:41;;;;;;;20.80;13.00;;;2.00;99.90;;;;;;5027118;28;20788;-62
2022/04/04 05:49:10;;;;;;;18.33;13.90;;;2.00;99.90;;;;;;5023833;28;20766;-62
2022/04/04 05:51:39;;;;;;;17.13;13.40;;;2.10;99.90;;;;;;5027873;28;20876;-62
2022/04/04 05:54:06;;;;;;;17.60;13.43;;;2.10;99.90;;;;;;5027640;28;20531;-62
2022/04/04 05:56:35;;;;;;;19.47;12.63;;;2.20;99.90;;;;;;5026379;28;20544;-61
2022/04/04 05:59:05;;;;;;;16.20;12.53;;;2.30;99.90;;;;;;5025849;28;20809;-62
2022/04/04 06:01:33;;;;;;;20.80;12.80;;;2.30;99.90;;;;;;5025243;28;20868;-62
2022/04/04 06:03:59;;;;;;;17.57;11.10;;;2.40;93.50;;;;;;5024079;28;20489;-62
2022/04/04 06:06:30;;;;;;;16.90;12.40;;;2.40;95.00;;;;;;5026637;28;20563;-62
2022/04/04 06:08:58;;;;;;;18.80;12.00;;;2.50;57.00;;;;;;5017679;28;20565;-62
2022/04/04 06:11:27;;;;;;;15.50;11.80;;;2.40;59.80;;;;;;5027809;28;20549;-60
2022/04/04 06:13:54;;;;;;;15.40;11.63;;;2.60;48.80;;;;;;5022881;28;20498;-62
2022/04/04 06:16:28;;;;;;;19.77;13.00;;;2.60;23.60;;;;;;5021342;28;20521;-62
2022/04/04 06:19:02;;;;;;;16.47;11.60;;;2.70;21.40;;;;;;5023048;28;20463;-62
2022/04/04 06:21:29;;;;;;;17.97;13.00;;;2.70;3.60;;;;;;5026998;28;20526;-59
2022/04/04 06:23:58;;;;;;;15.10;10.17;;;2.80;1.00;;;;;;5027502;28;20565;-61
2022/04/04 06:26:26;;;;;;;16.40;12.00;;;2.90;1.00;;;;;;5035664;28;20487;-61
2022/04/04 06:28:57;;;;;;;22.53;12.07;;;3.00;1.00;;;;;;5031760;28;20482;-60
2022/04/04 06:31:24;;;;;;;21.87;14.30;;;3.00;1.00;;;;;;5027508;28;20886;-61
2022/04/04 06:33:58;;;;;;;19.20;12.80;;;3.00;1.00;;;;;;5020629;28;20546;-62
2022/04/04 06:36:28;;;;;;;16.87;11.77;;;3.00;1.00;;;;;;5016859;28;20471;-62
2022/04/04 06:38:57;;;;;;;16.27;12.83;;;3.00;1.00;;;;;;5022601;28;20479;-62
2022/04/04 06:41:24;;;;;;;13.10;10.33;;;3.10;1.00;;;;;;5031015;28;20912;-58
2022/04/04 06:43:58;;;;;;;16.03;11.13;;;3.20;1.00;;;;;;5026885;28;21178;-62
2022/04/04 06:46:25;;;;;;;17.20;11.27;;;3.20;1.00;;;;;;5026048;28;20467;-61
2022/04/04 06:48:57;;;;;;;11.37;9.63;;;3.30;1.00;;;;;;5031189;28;20466;-62
2022/04/04 06:51:27;;;;;;;13.10;11.07;;;3.40;1.00;;;;;;5020695;28;20473;-60
2022/04/04 06:53:54;;;;;;;13.77;11.30;;;3.50;1.00;;;;;;5029869;28;20829;-60
2022/04/04 06:56:21;;;;;;;17.20;10.00;;;3.60;1.00;;;;;;5019148;28;20460;-61
2022/04/04 06:59:09;;;;;;;12.47;9.03;;;3.70;1.00;;;;;;5033922;28;20470;-61
2022/04/04 07:01:38;;;;;;;10.60;8.53;;;3.70;1.00;;;;;;5021493;28;20475;-61
2022/04/04 07:04:14;;;;;;;14.83;9.80;;;3.70;1.00;;;;;;5029244;28;20526;-61
2022/04/04 07:06:44;;;;;;;14.00;10.50;;;3.70;1.00;;;;;;5017361;28;20487;-61
2022/04/04 07:09:11;;;;;;;11.93;9.20;;;4.00;1.00;;;;;;5018885;28;20467;-60
2022/04/04 07:11:41;;;;;;;9.30;8.03;;;4.10;1.00;;;;;;5017476;28;20542;-61
2022/04/04 07:14:10;;;;;;;13.87;9.53;;;4.30;1.00;;;;;;5033240;28;20759;-61
2022/04/04 07:16:51;;;;;;;11.23;9.17;;;4.50;1.00;;;;;;5025294;28;20468;-61
2022/04/04 07:19:27;;;;;;;12.80;7.90;;;4.80;1.00;;;;;;5016435;28;20470;-61
2022/04/04 07:21:54;;;;;;;10.40;9.23;;;4.90;1.00;;;;;;5017332;28;20463;-61
2022/04/04 07:24:26;;;;;;;15.13;10.00;;;4.90;1.00;;;;;;5023945;28;20497;-62
2022/04/04 07:26:54;;;;;;;9.30;8.07;;;5.00;1.00;;;;;;5029170;28;20467;-61
2022/04/04 07:29:25;;;;;;;15.77;9.30;;;5.00;1.00;;;;;;5029484;28;20896;-61
2022/04/04 07:31:53;;;;;;;10.90;8.00;;;5.00;1.00;;;;;;5040308;28;20498;-61
2022/04/04 07:34:21;;;;;;;9.77;8.33;;;5.00;1.00;;;;;;5025837;28;20590;-62
2022/04/04 07:36:48;;;;;;;11.67;8.83;;;5.00;1.00;;;;;;5022197;28;20514;-60
2022/04/04 07:39:15;;;;;;;8.50;7.27;;;5.10;1.00;;;;;;5039790;28;20528;-60
2022/04/04 07:41:42;;;;;;;9.87;7.90;;;5.20;1.00;;;;;;5042302;28;20957;-61
2022/04/04 07:44:09;;;;;;;9.30;8.00;;;5.30;1.00;;;;;;5051419;28;20809;-61
2022/04/04 07:46:41;;;;;;;9.83;8.27;;;5.30;1.00;;;;;;5022447;28;20560;-61
2022/04/04 07:49:08;;;;;;;9.17;7.63;;;5.30;1.00;;;;;;5022163;28;20517;-62
2022/04/04 07:51:41;;;;;;;8.37;6.90;;;5.20;1.00;;;;;;5023806;28;20463;-62
2022/04/04 07:54:10;;;;;;;13.43;8.40;;;5.20;1.00;;;;;;5038937;28;20452;-61
2022/04/04 07:56:42;;;;;;;9.00;8.10;;;5.30;1.00;;;;;;5022966;28;20467;-62
2022/04/04 07:59:14;;;;;;;11.80;8.20;;;5.30;1.00;;;;;;5030644;28;20459;-62
2022/04/04 08:01:41;;;;;;;9.30;8.30;;;5.40;1.00;;;;;;5037205;28;20460;-62
2022/04/04 08:04:09;;;;;;;10.90;7.67;;;5.50;1.00;;;;;;5030675;28;20488;-62
2022/04/04 08:06:44;;;;;;;10.63;7.87;;;5.50;1.00;;;;;;5042091;28;20467;-62
2022/04/04 08:09:11;;;;;;;9.47;7.70;;;5.90;1.00;;;;;;5041307;28;20534;-60
2022/04/04 08:11:40;;;;;;;20.33;8.30;;;6.30;99.90;;;;;;5042151;28;20856;-62
2022/04/04 08:14:08;;;;;;;9.43;8.40;;;6.30;99.90;;;;;;5041701;28;20830;-61
2022/04/04 08:16:35;;;;;;;7.90;7.03;;;6.30;99.90;;;;;;5025420;28;20533;-62
2022/04/04 08:19:14;;;;;;;19.43;7.50;;;6.20;99.90;;;;;;5023291;28;20459;-62
2022/04/04 08:21:44;;;;;;;8.73;7.80;;;6.30;99.90;;;;;;5027451;28;20463;-62
2022/04/04 08:24:11;;;;;;;8.10;7.03;;;6.40;99.90;;;;;;5036486;28;20497;-60
2022/04/04 08:26:43;;;;;;;8.83;7.67;;;6.30;99.90;;;;;;5033030;28;20859;-61
2022/04/04 08:29:10;;;;;;;8.53;7.63;;;6.20;99.90;;;;;;5040669;28;20890;-61
2022/04/04 08:31:41;;;;;;;8.17;7.30;;;6.10;99.90;;;;;;5023704;28;20518;-61
2022/04/04 08:34:12;;;;;;;7.43;6.73;;;6.20;99.90;;;;;;5032796;28;20545;-61
2022/04/04 08:36:46;;;;;;;9.80;6.50;;;6.30;99.90;;;;;;5018451;28;20472;-61
2022/04/04 08:39:13;;;;;;;14.43;7.07;;;6.50;99.90;;;;;;5019697;28;20524;-62
2022/04/04 08:41:42;;;;;;;8.13;7.33;;;6.80;99.90;;;;;;5023754;28;20446;-62
2022/04/04 08:44:09;;;;;;;7.30;6.57;;;7.10;99.90;;;;;;5028874;28;20522;-61
2022/04/04 08:46:38;;;;;;;9.23;7.10;;;7.30;99.90;;;;;;5032379;28;20510;-62
2022/04/04 08:49:07;;;;;;;8.70;7.57;;;7.40;99.90;;;;;;5018719;28;20500;-61
2022/04/04 08:51:36;;;;;;;9.53;7.00;;;7.30;99.90;;;;;;5025299;28;20477;-62
2022/04/04 08:54:12;;;;;;;10.53;7.40;;;7.30;99.90;;;;;;5019237;28;20495;-61
2022/04/04 08:56:39;;;;;;;10.83;8.00;;;7.20;99.90;;;;;;5018367;28;20473;-61
2022/04/04 08:59:06;;;;;;;8.13;7.30;;;7.10;99.90;;;;;;5019263;28;20478;-61
2022/04/04 09:01:33;;;;;;;10.80;7.47;;;7.00;99.90;;;;;;5023271;28;20459;-61
2022/04/04 09:04:20;;;;;;;12.30;7.47;;;6.90;99.90;;;;;;5039297;28;20502;-60
2022/04/04 09:06:50;;;;;;;9.17;6.93;;;7.10;99.90;;;;;;5038639;28;20442;-61
2022/04/04 09:09:38;;;;;;;13.53;7.53;;;7.10;99.90;;;;;;5018408;28;20778;-60
2022/04/04 09:12:13;;;;;;;17.93;7.63;;;6.50;99.90;;;;;;5031008;28;20532;-61
2022/04/04 09:14:47;;;;;;;8.00;7.20;;;6.40;99.90;;;;;;5021766;28;20463;-61
2022/04/04 09:17:20;;;;;;;9.50;6.50;;;6.40;99.90;;;;;;5019157;28;20912;-62
2022/04/04 09:19:47;;;;;;;9.13;8.30;;;6.60;99.90;;;;;;5018851;28;20467;-61
2022/04/04 09:22:19;;;;;;;7.80;6.73;;;6.80;99.90;;;;;;5022200;28;20521;-61
2022/04/04 09:24:58;;;;;;;8.10;7.20;;;6.90;99.90;;;;;;5038136;28;20616;-61
2022/04/04 09:27:29;;;;;;;8.87;7.17;;;7.00;99.90;;;;;;5037584;28;20565;-60
2022/04/04 09:30:00;;;;;;;11.87;7.03;;;7.20;99.90;;;;;;5032027;28;20510;-60
2022/04/04 09:32:39;;;;;;;9.00;7.47;;;7.30;99.90;;;;;;5027394;28;20500;-61
2022/04/04 09:35:13;;;;;;;10.40;7.73;;;7.00;99.90;;;;;;5038334;28;20509;-60
2022/04/04 09:37:41;;;;;;;15.47;7.40;;;7.00;99.90;;;;;;5038687;28;20466;-61
2022/04/04 09:40:15;;;;;;;7.37;6.67;;;7.10;99.90;;;;;;5023226;28;20519;-61
2022/04/04 09:42:43;;;;;;;11.43;7.40;;;7.20;99.90;;;;;;5018336;28;20490;-61
2022/04/04 09:45:12;;;;;;;10.93;7.10;;;7.00;99.90;;;;;;5020817;28;20492;-61
2022/04/04 09:47:57;;;;;;;6.17;5.67;;;7.10;99.90;;;;;;5018422;28;20919;-62
2022/04/04 09:50:37;;;;;;;8.33;7.43;;;7.00;99.90;;;;;;5018276;28;20573;-61
2022/04/04 09:53:06;;;;;;;11.70;7.00;;;7.10;99.90;;;;;;5017844;28;20495;-61
2022/04/04 09:55:38;;;;;;;8.10;6.97;;;7.20;99.90;;;;;;5035681;28;20490;-61
2022/04/04 09:58:14;;;;;;;6.77;6.10;;;7.30;99.90;;;;;;5037733;28;20497;-61
2022/04/04 10:00:44;;;;;;;8.07;6.13;;;7.20;99.90;;;;;;5025509;28;20441;-61
2022/04/04 10:03:19;;;;;;;8.70;7.00;;;7.00;99.90;;;;;;5018653;28;20563;-61
2022/04/04 10:05:53;;;;;;;8.37;7.20;;;6.80;99.90;;;;;;5035484;28;20795;-61
2022/04/04 10:08:30;;;;;;;9.90;7.63;;;6.70;99.90;;;;;;5037963;28;20477;-61
2022/04/04 10:11:00;;;;;;;8.87;7.97;;;6.60;1.00;;;;;;5026636;28;20586;-60
2022/04/04 10:13:27;;;;;;;8.83;7.23;;;6.50;1.00;;;;;;5032685;28;20743;-60
2022/04/04 10:15:57;;;;;;;17.73;8.47;;;6.20;1.00;;;;;;5020301;28;20464;-61
2022/04/04 10:18:27;;;;;;;8.90;7.60;;;6.00;1.00;;;;;;5017871;28;20471;-61
2022/04/04 10:20:54;;;;;;;10.30;7.60;;;6.10;1.00;;;;;;5018350;28;20464;-62
2022/04/04 10:23:26;;;;;;;7.87;7.07;;;5.90;1.00;;;;;;5018587;28;20496;-62
2022/04/04 10:25:53;;;;;;;8.03;7.33;;;5.60;1.00;;;;;;5017652;28;20496;-62
2022/04/04 10:28:31;;;;;;;9.70;8.70;;;5.50;1.00;;;;;;5018588;28;20464;-64
2022/04/04 10:31:01;;;;;;;8.90;8.10;;;5.50;1.00;;;;;;5026272;28;20462;-63
2022/04/04 10:33:28;;;;;;;10.83;8.60;;;5.40;1.00;;;;;;5032304;28;20467;-64
2022/04/04 10:36:04;;;;;;;12.30;9.30;;;5.40;1.00;;;;;;5036589;28;20487;-61
2022/04/04 10:38:32;;;;;;;11.87;8.63;;;5.40;1.00;;;;;;5022574;28;20507;-58
2022/04/04 10:43:48;;;;;;;11.97;8.87;;;5.20;59.60;;;;;;5015918;28;20468;-59
2022/04/04 10:46:17;;;;;;;10.63;9.53;;;5.20;99.90;;;;;;5017141;28;20471;-57
2022/04/04 10:49:00;;;;;;;13.30;9.93;;;5.30;99.90;;;;;;5016513;28;20570;-60
2022/04/04 10:51:31;;;;;;;12.87;10.10;;;5.30;99.90;;;;;;5016059;28;20475;-59
2022/04/04 10:54:05;;;;;;;15.20;9.80;;;5.00;99.90;;;;;;5022307;28;20503;-59
2022/04/04 10:56:41;;;;;;;12.20;9.70;;;5.00;99.90;;;;;;5033703;28;20478;-59
2022/04/04 10:59:28;;;;;;;11.53;10.10;;;5.00;99.90;;;;;;5033847;28;20506;-60
2022/04/04 11:01:58;;;;;;;11.97;10.60;;;4.90;99.90;;;;;;5017085;28;20467;-60
2022/04/04 11:04:29;;;;;;;13.70;10.70;;;4.90;99.90;;;;;;5020258;28;20492;-61
2022/04/04 11:10:05;;;;;;;12.80;11.00;;;4.80;1.00;;;;;;5016480;28;20447;-60
2022/04/04 11:12:56;;;;;;;15.13;11.43;;;4.90;99.90;;;;;;5022111;28;20788;-60
2022/04/04 11:15:48;;;;;;;17.43;10.67;;;5.00;1.00;;;;;;5017200;28;20464;-61
2022/04/04 11:18:23;;;;;;;12.37;10.37;;;5.00;99.90;;;;;;5016433;28;20460;-60
2022/04/04 11:20:59;;;;;;;10.93;9.80;;;5.10;99.90;;;;;;5016556;28;20470;-60
2022/04/04 11:23:39;;;;;;;12.77;10.40;;;5.10;99.90;;;;;;5024542;28;20456;-60
2022/04/04 11:26:11;;;;;;;10.40;9.33;;;5.10;99.90;;;;;;5018573;28;20866;-60
2022/04/04 11:28:38;;;;;;;13.03;10.90;;;5.10;99.90;;;;;;5035618;28;20521;-62
2022/04/04 11:31:17;;;;;;;12.10;10.90;;;5.00;99.90;;;;;;5029105;28;20500;-63
2022/04/04 11:33:51;;;;;;;11.57;10.37;;;5.00;99.90;;;;;;5017301;28;20769;-62
2022/04/04 11:36:25;;;;;;;16.00;10.87;;;5.00;99.90;;;;;;5018828;28;20478;-62
2022/04/04 11:39:03;;;;;;;15.23;11.97;;;5.00;99.90;;;;;;5018056;28;20460;-61
2022/04/04 11:41:36;;;;;;;12.90;11.60;;;5.00;1.00;;;;;;5016922;28;20850;-61
2022/04/04 11:44:03;;;;;;;11.70;10.50;;;4.70;99.90;;;;;;5016552;28;20486;-62
2022/04/04 11:46:39;;;;;;;12.60;10.97;;;4.70;1.00;;;;;;5018154;28;20556;-62
2022/04/04 11:49:09;;;;;;;12.20;10.80;;;4.60;1.00;;;;;;5018011;28;20460;-62
2022/04/04 11:51:36;;;;;;;11.20;10.10;;;4.50;12.00;;;;;;5017450;28;20786;-61
2022/04/04 11:54:04;;;;;;;14.00;11.83;;;4.40;99.90;;;;;;5016413;28;20914;-62
2022/04/04 11:56:47;;;;;;;14.40;11.90;;;4.30;99.90;;;;;;5016280;28;20468;-63
2022/04/04 11:59:17;;;;;;;15.67;11.67;;;4.30;1.00;;;;;;5017458;28;20495;-62
2022/04/04 12:01:50;;;;;;;18.20;13.00;;;4.30;1.00;;;;;;5017983;28;20471;-62
2022/04/04 12:04:25;;;;;;;13.70;12.00;;;4.30;18.30;;;;;;5019845;28;20522;-62
2022/04/04 12:06:57;;;;;;;15.07;13.03;;;4.10;30.40;;;;;;5016349;28;20463;-62
2022/04/04 12:09:39;;;;;;;12.90;11.57;;;4.10;99.90;;;;;;5016281;28;20504;-61
2022/04/04 12:12:13;;;;;;;17.63;13.67;;;4.00;1.00;;;;;;5018541;28;20523;-62
2022/04/04 12:14:43;;;;;;;14.27;12.80;;;4.00;99.90;;;;;;5038621;28;20542;-61
2022/04/04 12:17:13;;;;;;;15.37;13.43;;;3.90;1.00;;;;;;5039849;28;20554;-62
2022/04/04 12:19:50;;;;;;;15.30;13.70;;;3.90;99.90;;;;;;5021713;28;20467;-63
2022/04/04 12:25:04;;;;;;;14.67;13.03;;;3.70;1.00;;;;;;5020178;28;20627;-61
2022/04/04 12:27:55;;;;;;;13.83;12.30;;;3.60;1.00;;;;;;5020209;28;20468;-62
2022/04/04 12:30:35;;;;;;;17.10;14.77;;;3.70;1.00;;;;;;5020166;28;20476;-62
2022/04/04 12:33:17;;;;;;;16.30;14.60;;;3.80;99.90;;;;;;5024536;28;20473;-62
2022/04/04 12:35:45;;;;;;;16.27;14.67;;;3.70;91.60;;;;;;5040346;28;20467;-62
2022/04/04 12:38:33;;;;;;;18.90;15.90;;;3.70;1.00;;;;;;5040117;28;20463;-62
2022/04/04 12:41:13;;;;;;;17.20;14.67;;;3.70;1.00;;;;;;5036311;28;20463;-62
2022/04/04 12:43:47;;;;;;;22.10;15.97;;;3.70;1.70;;;;;;5023374;28;20931;-61
2022/04/04 12:46:27;;;;;;;17.47;15.57;;;3.70;99.90;;;;;;5019947;28;20527;-62
2022/04/04 12:49:07;;;;;;;19.63;15.90;;;3.80;1.00;;;;;;5019418;28;20472;-62
2022/04/04 12:51:38;;;;;;;23.20;15.77;;;3.80;1.00;;;;;;5019537;28;20464;-62
2022/04/04 12:54:08;;;;;;;19.73;13.70;;;3.80;1.00;;;;;;5023764;28;20463;-62
2022/04/04 12:56:49;;;;;;;17.00;15.20;;;3.70;99.90;;;;;;5026376;28;20550;-62
2022/04/04 12:59:24;;;;;;;16.60;14.20;;;3.70;99.90;;;;;;5019803;28;20833;-62
2022/04/04 13:02:09;;;;;;;18.43;16.17;;;3.60;99.90;;;;;;5038749;28;20890;-61
2022/04/04 13:04:41;;;;;;;17.87;16.00;;;3.60;41.50;;;;;;5025892;28;20463;-60
2022/04/04 13:07:24;;;;;;;20.00;18.00;;;3.60;99.90;;;;;;5033266;28;20474;-61
2022/04/04 13:10:01;;;;;;;22.93;18.33;;;3.70;99.90;;;;;;5027675;28;20486;-61
2022/04/04 13:12:40;;;;;;;21.40;18.00;;;3.70;1.00;;;;;;5019000;28;20939;-61
2022/04/04 13:15:16;;;;;;;21.33;19.00;;;3.70;1.00;;;;;;5026665;28;20566;-62
2022/04/04 13:17:45;;;;;;;20.17;18.20;;;3.70;1.00;;;;;;5039548;28;20742;-62
2022/04/04 13:20:21;;;;;;;19.57;17.67;;;3.70;1.00;;;;;;5038925;28;20495;-61
2022/04/04 13:22:49;;;;;;;21.57;19.17;;;3.60;1.00;;;;;;5038366;28;20474;-61
2022/04/04 13:25:17;;;;;;;18.30;16.27;;;3.60;10.60;;;;;;5031742;28;20496;-61